Terminal Aerodrome Forecast
Issued by NWS

Home | Current Version | Previous Version | Text Only | Print | Product List | Glossary On
Versions: 1 2 3 4 5 6 7 8 9 10 11 12 13 14 15 16 17 18 19 20 21
000
FTUS41 KPBZ 180520
TAFDUJ
TAF
KDUJ 180520Z 1806/1906 18004KT 3SM -SN BR OVC008
      TEMPO 1806/1810 1SM -SN OVC003
     FM181300 27007KT P6SM OVC015
     FM181700 22006KT P6SM SCT015
     FM182100 VRB05KT P6SM SKC=

USA.gov is the U.S. government's official web portal to all federal, state and local government web resources and services.